Time;durP1;ratioP1;P1;durP2;ratioP2;P2;SDS_P1;SDS_P2;PMS_P1;PMS_P2;Temp;Humidity;BMP_temperature;BMP_pressure;BME280_temperature;BME280_humidity;BME280_pressure;Samples;Min_cycle;Max_cycle;Signal;HPM_P1;HPM_P2
2023/11/22 00:00:16;;;;;;;;;;;;;;;;;;5052224;28;19933;-60
2023/11/22 00:02:42;;;;;;;;;;;;;;;;;;5029314;28;19924;-60
2023/11/22 00:05:09;;;;;;;;;;;;;;;;;;5052076;28;19928;-60
2023/11/22 00:07:35;;;;;;;;;;;;;;;;;;5052443;28;20450;-60
2023/11/22 00:10:04;;;;;;;;;;;;;;;;;;5051927;28;19996;-59
2023/11/22 00:12:36;;;;;;;;;;;;;;;;;;5052384;28;19977;-59
2023/11/22 00:15:02;;;;;;;;;;;;;;;;;;5044756;28;19939;-59
2023/11/22 00:17:28;;;;;;;;;;;;;;;;;;5045925;28;19925;-60
2023/11/22 00:19:53;;;;;;;;;;;;;;;;;;5051039;28;20359;-60
2023/11/22 00:22:19;;;;;;;;;;;;;;;;;;5047608;28;19925;-60
2023/11/22 00:24:50;;;;;;;;;;;;;;;;;;5047032;28;20402;-60
2023/11/22 00:27:16;;;;;;;;;;;;;;;;;;5050326;28;19959;-60
2023/11/22 00:29:41;;;;;;;;;;;;;;;;;;5050322;28;19928;-59
2023/11/22 00:32:07;;;;;;;;;;;;;;;;;;5043873;28;19932;-59
2023/11/22 00:34:33;;;;;;;;;;;;;;;;;;5047479;28;19929;-60
2023/11/22 00:36:59;;;;;;;;;;;;;;;;;;5032172;28;19927;-59
2023/11/22 00:39:25;;;;;;;;;;;;;;;;;;5048140;28;19964;-59
2023/11/22 00:41:51;;;;;;;;;;;;;;;;;;5045671;28;19990;-59
2023/11/22 00:44:18;;;;;;;;;;;;;;;;;;5049477;28;20007;-59
2023/11/22 00:46:45;;;;;;;;;;;;;;;;;;5051460;28;19936;-59
2023/11/22 00:49:11;;;;;;;;;;;;;;;;;;5048701;28;19927;-59
2023/11/22 00:51:37;;;;;;;;;;;;;;;;;;5051598;28;19925;-59
2023/11/22 00:54:03;;;;;;;;;;;;;;;;;;5050939;28;19983;-59
2023/11/22 00:56:29;;;;;;;;;;;;;;;;;;5049367;28;20018;-59
2023/11/22 00:58:57;;;;;;;;;;;;;;;;;;5050768;28;19932;-60
2023/11/22 01:01:22;;;;;;;;;;;;;;;;;;5048078;28;20071;-60
2023/11/22 01:03:48;;;;;;;;;;;;;;;;;;5027070;28;20040;-60
2023/11/22 01:06:14;;;;;;;;;;;;;;;;;;5050218;28;20067;-61
2023/11/22 01:08:40;;;;;;;;;;;;;;;;;;5050238;28;19921;-60
2023/11/22 01:11:07;;;;;;;;;;;;;;;;;;5050309;28;19929;-60
2023/11/22 01:13:39;;;;;;;;;;;;;;;;;;5049857;28;19948;-60
2023/11/22 01:16:06;;;;;;;;;;;;;;;;;;5012923;28;20039;-60
2023/11/22 01:18:32;;;;;;;;;;;;;;;;;;5039646;28;19925;-60
2023/11/22 01:20:57;;;;;;;;;;;;;;;;;;5043804;28;19948;-60
2023/11/22 01:23:23;;;;;;;;;;;;;;;;;;5046563;28;19925;-60
2023/11/22 01:25:50;;;;;;;;;;;;;;;;;;5044777;28;19976;-58
2023/11/22 01:28:17;;;;;;;;;;;;;;;;;;5052481;28;19951;-59
2023/11/22 01:30:45;;;;;;;;;;;;;;;;;;5052575;28;19921;-59
2023/11/22 01:33:11;;;;;;;;;;;;;;;;;;5051064;28;20003;-59
2023/11/22 01:35:38;;;;;;;;;;;;;;;;;;5052701;28;20004;-59
2023/11/22 01:38:04;;;;;;;;;;;;;;;;;;5032989;28;19928;-59
2023/11/22 01:40:30;;;;;;;;;;;;;;;;;;5050805;28;20002;-59
2023/11/22 01:42:56;;;;;;;;;;;;;;;;;;5051699;28;19932;-60
2023/11/22 01:45:22;;;;;;;;;;;;;;;;;;5053459;28;19929;-60
2023/11/22 01:47:48;;;;;;;;;;;;;;;;;;5017390;28;19920;-60
2023/11/22 01:50:14;;;;;;;;;;;;;;;;;;5047357;28;20996;-60
2023/11/22 01:52:40;;;;;;;;;;;;;;;;;;5052370;28;19925;-60
2023/11/22 01:55:06;;;;;;;;;;;;;;;;;;5034622;28;19928;-60
2023/11/22 01:57:33;;;;;;;;;;;;;;;;;;5033136;28;19950;-59
2023/11/22 01:59:59;;;;;;;;;;;;;;;;;;5052397;28;19921;-59
2023/11/22 02:02:25;;;;;;;;;;;;;;;;;;5052817;28;19936;-59
2023/11/22 02:04:51;;;;;;;;;;;;;;;;;;5049811;28;19947;-59
2023/11/22 02:07:17;;;;;;;;;;;;;;;;;;5017657;28;19924;-59
2023/11/22 02:09:43;;;;;;;;;;;;;;;;;;5053439;28;20463;-60
2023/11/22 02:12:10;;;;;;;;;;;;;;;;;;5053775;28;19928;-60
2023/11/22 02:14:35;;;;;;;;;;;;;;;;;;5053083;28;19920;-60
2023/11/22 02:17:01;;;;;;;;;;;;;;;;;;5052948;28;19998;-60
2023/11/22 02:19:30;;;;;;;;;;;;;;;;;;5022974;28;19921;-60
2023/11/22 02:21:56;;;;;;;;;;;;;;;;;;5052978;28;20011;-59
2023/11/22 02:24:22;;;;;;;;;;;;;;;;;;5031558;28;20027;-59
2023/11/22 02:26:47;;;;;;;;;;;;;;;;;;5042965;28;19962;-60
2023/11/22 02:29:13;;;;;;;;;;;;;;;;;;5018688;28;19929;-60
2023/11/22 02:31:40;;;;;;;;;;;;;;;;;;5032314;28;19932;-60
2023/11/22 02:34:06;;;;;;;;;;;;;;;;;;5051669;28;19921;-60
2023/11/22 02:36:32;;;;;;;;;;;;;;;;;;5052933;28;19921;-60
2023/11/22 02:38:58;;;;;;;;;;;;;;;;;;5032433;28;19924;-60
2023/11/22 02:41:25;;;;;;;;;;;;;;;;;;5049504;28;20308;-60
2023/11/22 02:43:51;;;;;;;;;;;;;;;;;;5050233;28;20405;-60
2023/11/22 02:46:17;;;;;;;;;;;;;;;;;;5029298;28;19929;-60
2023/11/22 02:48:45;;;;;;;;;;;;;;;;;;5052736;28;19925;-60
2023/11/22 02:51:11;;;;;;;;;;;;;;;;;;5050148;28;19983;-60
2023/11/22 02:53:37;;;;;;;;;;;;;;;;;;5050568;28;20275;-60
2023/11/22 02:56:03;;;;;;;;;;;;;;;;;;5049188;28;20031;-60
2023/11/22 02:58:29;;;;;;;;;;;;;;;;;;5050783;28;19924;-60
2023/11/22 03:00:57;;;;;;;;;;;;;;;;;;5051792;28;20286;-60
2023/11/22 03:03:23;;;;;;;;;;;;;;;;;;5053012;28;20039;-60
2023/11/22 03:05:50;;;;;;;;;;;;;;;;;;5051012;28;19967;-60
2023/11/22 03:08:16;;;;;;;;;;;;;;;;;;5052217;28;20247;-59
2023/11/22 03:10:42;;;;;;;;;;;;;;;;;;5049078;28;19947;-59
2023/11/22 03:13:08;;;;;;;;;;;;;;;;;;5052530;28;19932;-59
2023/11/22 03:15:34;;;;;;;;;;;;;;;;;;5051292;28;19925;-59
2023/11/22 03:18:01;;;;;;;;;;;;;;;;;;5052008;28;19927;-59
2023/11/22 03:20:27;;;;;;;;;;;;;;;;;;5052791;28;19971;-59
2023/11/22 03:22:53;;;;;;;;;;;;;;;;;;5047915;28;20336;-59
2023/11/22 03:25:18;;;;;;;;;;;;;;;;;;5049728;28;20008;-59
2023/11/22 03:27:47;;;;;;;;;;;;;;;;;;5051198;28;19921;-59
2023/11/22 03:30:14;;;;;;;;;;;;;;;;;;5045844;28;19969;-60
2023/11/22 03:32:40;;;;;;;;;;;;;;;;;;5034650;28;19924;-60
2023/11/22 03:35:06;;;;;;;;;;;;;;;;;;5052832;28;19963;-60
2023/11/22 03:37:32;;;;;;;;;;;;;;;;;;5052914;28;20447;-60
2023/11/22 03:39:58;;;;;;;;;;;;;;;;;;5052853;28;19921;-60
2023/11/22 03:42:24;;;;;;;;;;;;;;;;;;5033006;28;19927;-60
2023/11/22 03:44:50;;;;;;;;;;;;;;;;;;5034502;28;19933;-60
2023/11/22 03:47:16;;;;;;;;;;;;;;;;;;5052701;28;19924;-60
2023/11/22 03:49:42;;;;;;;;;;;;;;;;;;5052428;28;20317;-60
2023/11/22 03:52:08;;;;;;;;;;;;;;;;;;5033497;28;19925;-60
2023/11/22 03:54:35;;;;;;;;;;;;;;;;;;5052648;28;19932;-60
2023/11/22 03:57:01;;;;;;;;;;;;;;;;;;5045907;28;19924;-60
2023/11/22 03:59:27;;;;;;;;;;;;;;;;;;5032162;28;19925;-60
2023/11/22 04:01:53;;;;;;;;;;;;;;;;;;5049128;28;19929;-60
2023/11/22 04:04:19;;;;;;;;;;;;;;;;;;5052425;28;19921;-60
2023/11/22 04:06:45;;;;;;;;;;;;;;;;;;5034322;28;19924;-60
2023/11/22 04:09:14;;;;;;;;;;;;;;;;;;5052049;28;19940;-60
2023/11/22 04:11:40;;;;;;;;;;;;;;;;;;5040366;28;19935;-60
2023/11/22 04:14:05;;;;;;;;;;;;;;;;;;5052338;28;19925;-60
2023/11/22 04:16:31;;;;;;;;;;;;;;;;;;5051789;28;20290;-60
2023/11/22 04:18:57;;;;;;;;;;;;;;;;;;5050287;28;19929;-60
2023/11/22 04:21:24;;;;;;;;;;;;;;;;;;5031268;28;19928;-60
2023/11/22 04:23:50;;;;;;;;;;;;;;;;;;5051827;28;19929;-60
2023/11/22 04:26:15;;;;;;;;;;;;;;;;;;5049440;28;19920;-60
2023/11/22 04:28:42;;;;;;;;;;;;;;;;;;5050370;28;20363;-60
2023/11/22 04:31:10;;;;;;;;;;;;;;;;;;5051554;28;19946;-60
2023/11/22 04:33:37;;;;;;;;;;;;;;;;;;5051888;28;19921;-60
2023/11/22 04:36:03;;;;;;;;;;;;;;;;;;5051215;28;19933;-60
2023/11/22 04:38:29;;;;;;;;;;;;;;;;;;5033065;28;20027;-60
2023/11/22 04:40:55;;;;;;;;;;;;;;;;;;5046982;28;19956;-64
2023/11/22 04:43:21;;;;;;;;;;;;;;;;;;5049594;28;19942;-64
2023/11/22 04:45:47;;;;;;;;;;;;;;;;;;5048629;28;19931;-60
2023/11/22 04:48:16;;;;;;;;;;;;;;;;;;5048986;28;19927;-60
2023/11/22 04:50:42;;;;;;;;;;;;;;;;;;5050266;28;19928;-61
2023/11/22 04:53:08;;;;;;;;;;;;;;;;;;5050086;28;19932;-60
2023/11/22 04:55:34;;;;;;;;;;;;;;;;;;5050465;28;20275;-60
2023/11/22 04:58:00;;;;;;;;;;;;;;;;;;5014239;28;19921;-61
2023/11/22 05:00:26;;;;;;;;;;;;;;;;;;5042600;28;19925;-60
2023/11/22 05:02:51;;;;;;;;;;;;;;;;;;5048929;28;19970;-60
2023/11/22 05:05:17;;;;;;;;;;;;;;;;;;5051151;28;19978;-60
2023/11/22 05:07:47;;;;;;;;;;;;;;;;;;5030737;28;19925;-61
2023/11/22 05:10:13;;;;;;;;;;;;;;;;;;5049329;28;19925;-60
2023/11/22 05:12:39;;;;;;;;;;;;;;;;;;5027975;28;20478;-60
2023/11/22 05:15:05;;;;;;;;;;;;;;;;;;5048910;28;19924;-60
2023/11/22 05:17:32;;;;;;;;;;;;;;;;;;5045990;28;20004;-61
2023/11/22 05:19:58;;;;;;;;;;;;;;;;;;5027596;28;19943;-61
2023/11/22 05:22:24;;;;;;;;;;;;;;;;;;5047208;28;19928;-58
2023/11/22 05:24:49;;;;;;;;;;;;;;;;;;5099331;22;20025;-66
2023/11/22 05:27:16;;;;;;;;;;;;;;;;;;5080456;28;20018;-65
2023/11/22 05:29:42;;;;;;;;;;;;;;;;;;5130098;28;19946;-66
2023/11/22 05:32:08;;;;;;;;;;;;;;;;;;5112946;28;20006;-66
2023/11/22 05:34:34;;;;;;;;;;;;;;;;;;5095918;28;20010;-66
2023/11/22 05:37:00;;;;;;;;;;;;;;;;;;5113280;28;20303;-66
2023/11/22 05:39:26;;;;;;;;;;;;;;;;;;5095190;28;20381;-66
2023/11/22 05:41:52;;;;;;;;;;;;;;;;;;5092989;28;19938;-66
2023/11/22 05:44:18;;;;;;;;;;;;;;;;;;5093029;28;19924;-66
2023/11/22 05:46:44;;;;;;;;;;;;;;;;;;5110252;28;19923;-66
2023/11/22 05:49:12;;;;;;;;;;;;;;;;;;5114570;28;19920;-66
2023/11/22 05:51:38;;;;;;;;;;;;;;;;;;5098597;28;19920;-66
2023/11/22 05:54:04;;;;;;;;;;;;;;;;;;5097002;28;20040;-66
2023/11/22 05:56:30;;;;;;;;;;;;;;;;;;5112888;28;19920;-66
2023/11/22 05:58:56;;;;;;;;;;;;;;;;;;5111170;28;19920;-66
2023/11/22 06:01:22;;;;;;;;;;;;;;;;;;5112871;28;20349;-66
2023/11/22 06:03:48;;;;;;;;;;;;;;;;;;5113314;28;19920;-65
2023/11/22 06:06:14;;;;;;;;;;;;;;;;;;5113297;28;19920;-65
2023/11/22 06:08:40;;;;;;;;;;;;;;;;;;5113005;28;20269;-65
2023/11/22 06:11:07;;;;;;;;;;;;;;;;;;5113000;28;19928;-65
2023/11/22 06:13:32;;;;;;;;;;;;;;;;;;5113161;28;19924;-66
2023/11/22 06:15:58;;;;;;;;;;;;;;;;;;5113957;28;19930;-66
2023/11/22 06:18:29;;;;;;;;;;;;;;;;;;5100624;28;20011;-66
2023/11/22 06:20:55;;;;;;;;;;;;;;;;;;5109534;28;19919;-66
2023/11/22 06:23:21;;;;;;;;;;;;;;;;;;5112414;28;20381;-66
2023/11/22 06:25:47;;;;;;;;;;;;;;;;;;5095937;28;19920;-66
2023/11/22 06:28:13;;;;;;;;;;;;;;;;;;5096018;28;19931;-65
2023/11/22 06:30:39;;;;;;;;;;;;;;;;;;5114425;28;20010;-65
2023/11/22 06:33:05;;;;;;;;;;;;;;;;;;5116482;28;19926;-66
2023/11/22 06:35:31;;;;;;;;;;;;;;;;;;5103092;28;19924;-65
2023/11/22 06:37:57;;;;;;;;;;;;;;;;;;5096772;28;19920;-65
2023/11/22 06:40:23;;;;;;;;;;;;;;;;;;5107548;28;19947;-65
2023/11/22 06:42:49;;;;;;;;;;;;;;;;;;5110254;28;20369;-65
2023/11/22 06:45:15;;;;;;;;;;;;;;;;;;5115791;28;19926;-65
2023/11/22 06:47:40;;;;;;;;;;;;;;;;;;5113232;28;19920;-66
2023/11/22 06:50:09;;;;;;;;;;;;;;;;;;5116730;28;20254;-66
2023/11/22 06:52:35;;;;;;;;;;;;;;;;;;5115927;28;19927;-66
2023/11/22 06:55:01;;;;;;;;;;;;;;;;;;5114161;28;19924;-66
2023/11/22 06:57:28;;;;;;;;;;;;;;;;;;5105215;28;19924;-66
2023/11/22 06:59:54;;;;;;;;;;;;;;;;;;5104252;28;19927;-66
2023/11/22 07:02:20;;;;;;;;;;;;;;;;;;5115185;28;19920;-65
2023/11/22 07:04:46;;;;;;;;;;;;;;;;;;5115625;28;19927;-66
2023/11/22 07:07:13;;;;;;;;;;;;;;;;;;5115052;28;19924;-66
2023/11/22 07:09:39;;;;;;;;;;;;;;;;;;5115049;28;19924;-66
2023/11/22 07:12:05;;;;;;;;;;;;;;;;;;5114792;28;19942;-65
2023/11/22 07:14:32;;;;;;;;;;;;;;;;;;5115337;28;19985;-65
2023/11/22 07:16:58;;;;;;;;;;;;;;;;;;5106810;28;19959;-65
2023/11/22 07:19:24;;;;;;;;;;;;;;;;;;5095048;28;19920;-65
2023/11/22 07:21:50;;;;;;;;;;;;;;;;;;5096450;28;19920;-65
2023/11/22 07:24:17;;;;;;;;;;;;;;;;;;5094367;28;19921;-65
2023/11/22 07:26:44;;;;;;;;;;;;;;;;;;5077781;28;20371;-65
2023/11/22 07:29:11;;;;;;;;;;;;;;;;;;5107547;28;19939;-65
2023/11/22 07:31:37;;;;;;;;;;;;;;;;;;5114971;28;20285;-66
2023/11/22 07:34:03;;;;;;;;;;;;;;;;;;5114888;28;19931;-66
2023/11/22 07:36:30;;;;;;;;;;;;;;;;;;5116335;28;19920;-66
2023/11/22 07:38:56;;;;;;;;;;;;;;;;;;5115105;28;20018;-66
2023/11/22 07:41:22;;;;;;;;;;;;;;;;;;5112522;28;19923;-66
2023/11/22 07:43:49;;;;;;;;;;;;;;;;;;5113718;28;19920;-66
2023/11/22 07:46:17;;;;;;;;;;;;;;;;;;5116204;28;19920;-65
2023/11/22 07:48:42;;;;;;;;;;;;;;;;;;5114533;28;19930;-65
2023/11/22 07:51:08;;;;;;;;;;;;;;;;;;5114386;28;20006;-65
2023/11/22 07:53:34;;;;;;;;;;;;;;;;;;5115785;28;19945;-66
2023/11/22 07:56:04;;;;;;;;;;;;;;;;;;5114525;28;19924;-66
2023/11/22 07:58:30;;;;;;;;;;;;;;;;;;5114310;28;19919;-66
2023/11/22 08:00:56;;;;;;;;;;;;;;;;;;5114796;28;20307;-65
2023/11/22 08:03:25;;;;;;;;;;;;;;;;;;5114458;28;19927;-65
2023/11/22 08:05:52;;;;;;;;;;;;;;;;;;5100966;28;19920;-65
2023/11/22 08:08:18;;;;;;;;;;;;;;;;;;5114127;28;20281;-65
2023/11/22 08:10:44;;;;;;;;;;;;;;;;;;5105083;28;19923;-65
2023/11/22 08:13:10;;;;;;;;;;;;;;;;;;5093591;28;20345;-65
2023/11/22 08:15:38;;;;;;;;;;;;;;;;;;5078591;28;19976;-66
2023/11/22 08:18:05;;;;;;;;;;;;;;;;;;5094723;28;19927;-65
2023/11/22 08:20:31;;;;;;;;;;;;;;;;;;5103269;28;20383;-65
2023/11/22 08:22:57;;;;;;;;;;;;;;;;;;5097236;28;19920;-65
2023/11/22 08:25:23;;;;;;;;;;;;;;;;;;5131027;27;19920;-65
2023/11/22 08:27:49;;;;;;;;;;;;;;;;;;5113006;28;19923;-65
2023/11/22 08:30:15;;;;;;;;;;;;;;;;;;5113378;28;19919;-65
2023/11/22 08:32:41;;;;;;;;;;;;;;;;;;5113778;28;19919;-65
2023/11/22 08:35:07;;;;;;;;;;;;;;;;;;5115824;28;19923;-65
2023/11/22 08:37:35;;;;;;;;;;;;;;;;;;5113199;28;19920;-66
2023/11/22 08:40:00;;;;;;;;;;;;;;;;;;5115272;28;20353;-66
2023/11/22 08:42:26;;;;;;;;;;;;;;;;;;5096694;28;19919;-66
2023/11/22 08:44:52;;;;;;;;;;;;;;;;;;5113966;28;19923;-66
2023/11/22 08:47:18;;;;;;;;;;;;;;;;;;5113355;28;20002;-66
2023/11/22 08:49:44;;;;;;;;;;;;;;;;;;5113572;28;19919;-66
2023/11/22 08:52:12;;;;;;;;;;;;;;;;;;5113917;28;20322;-66
2023/11/22 08:54:38;;;;;;;;;;;;;;;;;;5113332;28;20381;-66
2023/11/22 08:57:05;;;;;;;;;;;;;;;;;;5105265;28;19920;-66
2023/11/22 08:59:37;;;;;;;;;;;;;;;;;;5076594;28;19920;-66
2023/11/22 09:02:03;;;;;;;;;;;;;;;;;;5099340;28;20268;-66
2023/11/22 09:04:31;;;;;;;;;;;;;;;;;;5113125;28;19920;-66
2023/11/22 09:06:57;;;;;;;;;;;;;;;;;;5114048;28;20031;-66
2023/11/22 09:09:30;;;;;;;;;;;;;;;;;;5113510;28;19963;-66
2023/11/22 09:11:56;;;;;;;;;;;;;;;;;;5106156;28;19942;-66
2023/11/22 09:14:23;;;;;;;;;;;;;;;;;;5092699;28;20385;-66
2023/11/22 09:16:54;;;;;;;;;;;;;;;;;;5092775;28;19927;-66
2023/11/22 09:19:19;;;;;;;;;;;;;;;;;;5092742;28;19920;-66
2023/11/22 09:21:45;;;;;;;;;;;;;;;;;;5094323;28;20325;-66
2023/11/22 09:24:12;;;;;;;;;;;;;;;;;;5099618;28;19920;-66
2023/11/22 09:26:38;;;;;;;;;;;;;;;;;;5113578;28;19920;-66
2023/11/22 09:29:04;;;;;;;;;;;;;;;;;;5096309;28;19923;-66
2023/11/22 09:31:30;;;;;;;;;;;;;;;;;;5113384;28;19920;-66
2023/11/22 09:33:58;;;;;;;;;;;;;;;;;;5113655;28;22401;-65
2023/11/22 09:36:27;;;;;;;;;;;;;;;;;;5114936;28;20010;-66
2023/11/22 09:38:53;;;;;;;;;;;;;;;;;;5113114;28;19931;-66
2023/11/22 09:41:19;;;;;;;;;;;;;;;;;;5114488;28;19920;-66
2023/11/22 09:43:49;;;;;;;;;;;;;;;;;;5114785;28;20376;-65
2023/11/22 09:46:17;;;;;;;;;;;;;;;;;;5105848;28;19920;-66
2023/11/22 09:48:46;;;;;;;;;;;;;;;;;;5095326;28;19924;-66
2023/11/22 09:51:17;;;;;;;;;;;;;;;;;;5096976;28;19924;-66
2023/11/22 09:53:43;;;;;;;;;;;;;;;;;;5097745;28;19973;-66
2023/11/22 09:56:09;;;;;;;;;;;;;;;;;;5096754;28;20010;-66
2023/11/22 09:58:36;;;;;;;;;;;;;;;;;;5096819;28;20435;-66
2023/11/22 10:01:03;;;;;;;;;;;;;;;;;;5079812;28;20380;-66
2023/11/22 10:03:29;;;;;;;;;;;;;;;;;;5096511;28;19924;-66
2023/11/22 10:05:56;;;;;;;;;;;;;;;;;;5096056;28;20003;-66
2023/11/22 10:08:22;;;;;;;;;;;;;;;;;;5097548;28;20238;-66
2023/11/22 10:10:51;;;;;;;;;;;;;;;;;;5096234;28;19920;-66
2023/11/22 10:13:20;;;;;;;;;;;;;;;;;;5095875;28;20396;-66
2023/11/22 10:15:45;;;;;;;;;;;;;;;;;;5096007;28;19927;-66
2023/11/22 10:18:11;;;;;;;;;;;;;;;;;;5096246;28;19919;-66
2023/11/22 10:20:37;;;;;;;;;;;;;;;;;;5095844;28;19950;-66
2023/11/22 10:23:03;;;;;;;;;;;;;;;;;;5100373;28;19919;-66
2023/11/22 10:25:32;;;;;;;;;;;;;;;;;;5115997;28;19924;-65
2023/11/22 10:27:58;;;;;;;;;;;;;;;;;;5116087;28;19966;-66
2023/11/22 10:30:26;;;;;;;;;;;;;;;;;;5099528;28;19963;-66
2023/11/22 10:32:52;;;;;;;;;;;;;;;;;;5116352;28;20033;-66
2023/11/22 10:35:20;;;;;;;;;;;;;;;;;;5115867;28;20368;-66
2023/11/22 10:37:46;;;;;;;;;;;;;;;;;;5117454;27;20057;-66
2023/11/22 10:40:13;;;;;;;;;;;;;;;;;;5115862;28;19981;-66
2023/11/22 10:42:38;;;;;;;;;;;;;;;;;;5117597;28;19930;-66
2023/11/22 10:45:07;;;;;;;;;;;;;;;;;;5115980;28;19919;-66
2023/11/22 10:47:33;;;;;;;;;;;;;;;;;;5099558;28;19919;-65
2023/11/22 10:50:01;;;;;;;;;;;;;;;;;;5115880;28;20284;-65
2023/11/22 10:52:27;;;;;;;;;;;;;;;;;;5099255;28;20303;-65
2023/11/22 10:54:52;;;;;;;;;;;;;;;;;;5108630;28;19924;-66
2023/11/22 10:57:18;;;;;;;;;;;;;;;;;;5096903;28;19924;-65
2023/11/22 10:59:44;;;;;;;;;;;;;;;;;;5096051;28;19920;-65
2023/11/22 11:02:10;;;;;;;;;;;;;;;;;;5094996;28;19920;-65
2023/11/22 11:04:36;;;;;;;;;;;;;;;;;;5099635;28;19927;-66
2023/11/22 11:07:02;;;;;;;;;;;;;;;;;;5115255;28;19947;-66
2023/11/22 11:09:32;;;;;;;;;;;;;;;;;;5115250;28;19966;-65
2023/11/22 11:11:58;;;;;;;;;;;;;;;;;;5116633;28;19920;-65
2023/11/22 11:14:24;;;;;;;;;;;;;;;;;;5115112;28;20082;-65
2023/11/22 11:16:53;;;;;;;;;;;;;;;;;;5100022;28;19920;-65
2023/11/22 11:19:22;;;;;;;;;;;;;;;;;;5095038;28;19920;-66
2023/11/22 11:21:47;;;;;;;;;;;;;;;;;;5095094;28;20385;-66
2023/11/22 11:24:14;;;;;;;;;;;;;;;;;;5094867;28;20060;-66
2023/11/22 11:26:40;;;;;;;;;;;;;;;;;;5094967;28;19939;-65
2023/11/22 11:29:07;;;;;;;;;;;;;;;;;;5094400;28;19924;-65
2023/11/22 11:31:36;;;;;;;;;;;;;;;;;;5101616;28;19919;-67
2023/11/22 11:34:02;;;;;;;;;;;;;;;;;;5115568;28;20403;-65
2023/11/22 11:36:29;;;;;;;;;;;;;;;;;;5116195;28;19919;-65
2023/11/22 11:38:54;;;;;;;;;;;;;;;;;;5116374;28;20261;-65
2023/11/22 11:41:20;;;;;;;;;;;;;;;;;;5114916;28;19920;-65
2023/11/22 11:43:46;;;;;;;;;;;;;;;;;;5110959;28;19927;-65
2023/11/22 11:46:12;;;;;;;;;;;;;;;;;;5114145;28;19924;-65
2023/11/22 11:48:38;;;;;;;;;;;;;;;;;;5114868;28;20316;-65
2023/11/22 11:51:06;;;;;;;;;;;;;;;;;;5107977;27;20031;-65
2023/11/22 11:53:33;;;;;;;;;;;;;;;;;;5107227;28;19928;-65
2023/11/22 11:55:58;;;;;;;;;;;;;;;;;;5090009;28;19927;-65
2023/11/22 11:58:24;;;;;;;;;;;;;;;;;;5113284;28;19920;-65
2023/11/22 12:00:50;;;;;;;;;;;;;;;;;;5113822;28;19919;-65
2023/11/22 12:03:20;;;;;;;;;;;;;;;;;;5115060;28;20008;-65
2023/11/22 12:05:46;;;;;;;;;;;;;;;;;;5110988;28;19927;-65
2023/11/22 12:08:15;;;;;;;;;;;;;;;;;;5114190;28;19927;-65
2023/11/22 12:10:41;;;;;;;;;;;;;;;;;;5085213;28;19920;-65
2023/11/22 12:13:07;;;;;;;;;;;;;;;;;;5105057;28;19951;-65
2023/11/22 12:15:34;;;;;;;;;;;;;;;;;;5110509;28;19919;-65
2023/11/22 12:18:00;;;;;;;;;;;;;;;;;;5114802;28;19928;-65
2023/11/22 12:20:31;;;;;;;;;;;;;;;;;;5101469;28;19920;-65
2023/11/22 12:22:57;;;;;;;;;;;;;;;;;;5108754;28;19927;-65
2023/11/22 12:25:25;;;;;;;;;;;;;;;;;;5108587;28;19928;-65
2023/11/22 12:27:51;;;;;;;;;;;;;;;;;;5095307;28;20419;-65
2023/11/22 12:30:18;;;;;;;;;;;;;;;;;;5107451;28;20293;-65
2023/11/22 12:32:44;;;;;;;;;;;;;;;;;;5099082;28;19927;-65
2023/11/22 12:35:11;;;;;;;;;;;;;;;;;;5110955;28;19919;-65
2023/11/22 12:37:37;;;;;;;;;;;;;;;;;;5113349;28;19927;-66
2023/11/22 12:40:03;;;;;;;;;;;;;;;;;;5112968;28;20273;-66
2023/11/22 12:42:31;;;;;;;;;;;;;;;;;;5114353;28;19973;-66
2023/11/22 12:44:58;;;;;;;;;;;;;;;;;;5107072;28;19920;-66
2023/11/22 12:47:25;;;;;;;;;;;;;;;;;;5114687;28;19920;-66
2023/11/22 12:49:51;;;;;;;;;;;;;;;;;;5106203;28;20365;-65
2023/11/22 12:52:17;;;;;;;;;;;;;;;;;;5081529;28;19931;-65
2023/11/22 12:54:47;;;;;;;;;;;;;;;;;;5112945;28;20013;-65
2023/11/22 12:57:13;;;;;;;;;;;;;;;;;;5110088;28;19926;-65
2023/11/22 12:59:40;;;;;;;;;;;;;;;;;;5113846;28;19924;-65
2023/11/22 13:02:06;;;;;;;;;;;;;;;;;;5113197;28;19919;-65
2023/11/22 13:04:33;;;;;;;;;;;;;;;;;;5110003;28;20415;-65
2023/11/22 13:06:59;;;;;;;;;;;;;;;;;;5082902;28;19963;-65
2023/11/22 13:09:25;;;;;;;;;;;;;;;;;;5089786;28;19946;-65
2023/11/22 13:11:51;;;;;;;;;;;;;;;;;;5101794;28;19919;-65
2023/11/22 13:14:18;;;;;;;;;;;;;;;;;;5094847;28;19919;-66
2023/11/22 13:16:45;;;;;;;;;;;;;;;;;;5098675;28;19927;-66
2023/11/22 13:19:11;;;;;;;;;;;;;;;;;;5109127;28;20384;-64
2023/11/22 13:21:37;;;;;;;;;;;;;;;;;;5092401;28;19920;-65
2023/11/22 13:24:04;;;;;;;;;;;;;;;;;;5097104;28;19924;-65
2023/11/22 13:26:30;;;;;;;;;;;;;;;;;;5079647;28;20289;-65
2023/11/22 13:28:58;;;;;;;;;;;;;;;;;;5090339;28;20006;-65
2023/11/22 13:31:24;;;;;;;;;;;;;;;;;;5114144;28;19926;-65
2023/11/22 13:33:50;;;;;;;;;;;;;;;;;;5097979;28;19977;-66
2023/11/22 13:36:17;;;;;;;;;;;;;;;;;;5115836;28;20019;-65
2023/11/22 13:38:43;;;;;;;;;;;;;;;;;;5117571;28;19923;-65
2023/11/22 13:41:09;;;;;;;;;;;;;;;;;;5109644;28;19926;-66
2023/11/22 13:43:35;;;;;;;;;;;;;;;;;;5097829;28;19926;-66
2023/11/22 13:46:01;;;;;;;;;;;;;;;;;;5098339;28;20372;-66
2023/11/22 13:48:27;;;;;;;;;;;;;;;;;;5096531;28;19959;-66
2023/11/22 13:50:53;;;;;;;;;;;;;;;;;;5098276;28;19931;-66
2023/11/22 13:53:21;;;;;;;;;;;;;;;;;;5096887;28;20014;-66
2023/11/22 13:55:47;;;;;;;;;;;;;;;;;;5079570;28;19920;-66
2023/11/22 13:58:14;;;;;;;;;;;;;;;;;;5096656;28;19927;-66
2023/11/22 14:00:40;;;;;;;;;;;;;;;;;;5097998;28;19920;-66
2023/11/22 14:03:06;;;;;;;;;;;;;;;;;;5099103;28;20417;-66
2023/11/22 14:05:32;;;;;;;;;;;;;;;;;;5097527;28;19924;-66
2023/11/22 14:07:58;;;;;;;;;;;;;;;;;;5107550;28;20274;-66
2023/11/22 14:10:24;;;;;;;;;;;;;;;;;;5117690;28;19965;-66
2023/11/22 14:12:50;;;;;;;;;;;;;;;;;;5099996;28;19924;-66
2023/11/22 14:15:16;;;;;;;;;;;;;;;;;;5116590;28;19920;-66
2023/11/22 14:17:42;;;;;;;;;;;;;;;;;;5117712;28;20379;-66
2023/11/22 14:20:12;;;;;;;;;;;;;;;;;;5107903;28;19920;-66
2023/11/22 14:22:38;;;;;;;;;;;;;;;;;;5096223;28;19920;-66
2023/11/22 14:25:07;;;;;;;;;;;;;;;;;;5095763;28;20377;-66
2023/11/22 14:27:34;;;;;;;;;;;;;;;;;;5097161;28;19924;-66
2023/11/22 14:30:01;;;;;;;;;;;;;;;;;;5103524;28;20377;-66
2023/11/22 14:32:27;;;;;;;;;;;;;;;;;;5098452;28;19924;-66
2023/11/22 14:34:55;;;;;;;;;;;;;;;;;;5115671;28;20049;-66
2023/11/22 14:37:21;;;;;;;;;;;;;;;;;;5116873;28;19999;-66
2023/11/22 14:39:47;;;;;;;;;;;;;;;;;;5116105;28;19954;-66
2023/11/22 14:42:12;;;;;;;;;;;;;;;;;;5117053;28;20035;-66
2023/11/22 14:44:38;;;;;;;;;;;;;;;;;;5109729;28;19928;-66
2023/11/22 14:47:06;;;;;;;;;;;;;;;;;;5111376;28;19920;-66
2023/11/22 14:49:32;;;;;;;;;;;;;;;;;;5110465;28;19919;-66
2023/11/22 14:51:58;;;;;;;;;;;;;;;;;;5116289;28;19919;-66
2023/11/22 14:54:24;;;;;;;;;;;;;;;;;;5098529;28;19972;-67
2023/11/22 14:56:50;;;;;;;;;;;;;;;;;;5116832;28;19919;-66
2023/11/22 14:59:17;;;;;;;;;;;;;;;;;;5116940;28;20006;-66
2023/11/22 15:01:46;;;;;;;;;;;;;;;;;;5098274;28;19919;-66
2023/11/22 15:04:12;;;;;;;;;;;;;;;;;;5104704;28;19927;-66
2023/11/22 15:06:38;;;;;;;;;;;;;;;;;;5116543;28;19920;-66
2023/11/22 15:09:09;;;;;;;;;;;;;;;;;;5113130;28;19927;-66
2023/11/22 15:11:35;;;;;;;;;;;;;;;;;;5111324;28;19920;-66
2023/11/22 15:14:01;;;;;;;;;;;;;;;;;;5083794;28;19924;-66
2023/11/22 15:16:27;;;;;;;;;;;;;;;;;;5096181;28;19975;-66
2023/11/22 15:18:53;;;;;;;;;;;;;;;;;;5084617;28;19963;-66
2023/11/22 15:21:19;;;;;;;;;;;;;;;;;;5115429;28;19999;-66
2023/11/22 15:23:45;;;;;;;;;;;;;;;;;;5116320;28;19920;-66
2023/11/22 15:26:11;;;;;;;;;;;;;;;;;;5111072;28;19931;-66
2023/11/22 15:28:37;;;;;;;;;;;;;;;;;;5077728;28;19920;-66
2023/11/22 15:31:03;;;;;;;;;;;;;;;;;;5113786;28;20296;-66
2023/11/22 15:33:29;;;;;;;;;;;;;;;;;;5114520;28;19924;-66
2023/11/22 15:35:55;;;;;;;;;;;;;;;;;;5116153;28;20039;-66
2023/11/22 15:38:22;;;;;;;;;;;;;;;;;;5114878;28;19928;-66
2023/11/22 15:40:48;;;;;;;;;;;;;;;;;;5087788;28;20259;-66
2023/11/22 15:43:13;;;;;;;;;;;;;;;;;;5077930;28;19994;-66
2023/11/22 15:45:41;;;;;;;;;;;;;;;;;;5111238;28;19920;-66
2023/11/22 15:48:07;;;;;;;;;;;;;;;;;;5114476;28;20285;-66
2023/11/22 15:50:33;;;;;;;;;;;;;;;;;;5110765;28;19920;-66
2023/11/22 15:52:59;;;;;;;;;;;;;;;;;;5106464;28;19924;-66
2023/11/22 15:55:25;;;;;;;;;;;;;;;;;;5097414;28;19926;-66
2023/11/22 15:57:52;;;;;;;;;;;;;;;;;;5107474;28;20289;-66
2023/11/22 16:00:18;;;;;;;;;;;;;;;;;;5095231;28;19962;-66
2023/11/22 16:02:44;;;;;;;;;;;;;;;;;;5100439;28;20348;-66
2023/11/22 16:05:10;;;;;;;;;;;;;;;;;;5093895;28;19920;-66
2023/11/22 16:07:35;;;;;;;;;;;;;;;;;;5108732;28;19963;-66
2023/11/22 16:10:01;;;;;;;;;;;;;;;;;;5114942;28;19920;-66
2023/11/22 16:12:27;;;;;;;;;;;;;;;;;;5112053;28;19923;-66
2023/11/22 16:14:53;;;;;;;;;;;;;;;;;;5115164;28;19923;-66
2023/11/22 16:17:19;;;;;;;;;;;;;;;;;;5107506;28;19920;-66
2023/11/22 16:19:45;;;;;;;;;;;;;;;;;;5111816;28;19920;-66
2023/11/22 16:22:11;;;;;;;;;;;;;;;;;;5115262;28;19930;-66
2023/11/22 16:24:37;;;;;;;;;;;;;;;;;;5113956;28;19927;-67
2023/11/22 16:27:04;;;;;;;;;;;;;;;;;;5115170;28;19923;-66
2023/11/22 16:29:30;;;;;;;;;;;;;;;;;;5111364;28;19970;-66
2023/11/22 16:31:56;;;;;;;;;;;;;;;;;;5095457;28;19963;-65
2023/11/22 16:34:21;;;;;;;;;;;;;;;;;;5106074;28;19924;-66
2023/11/22 16:36:47;;;;;;;;;;;;;;;;;;5114480;28;19920;-64
2023/11/22 16:39:14;;;;;;;;;;;;;;;;;;5114795;28;19920;-66